Hauptseite
METAR-TAF:

METAR-TAF

Flughäfen :

Flughafen Kiel

Kiel, Deutschland

Breite: 54-23N, Länge: 010-10E, Höhe: 31 m

Beobachtung

Neuester Wetterbericht von vor 14 Stunden und 0 Minuten, um 14:50 UTC
Wind 6 kt aus Süd/Südwest, variierte zwischen Süd und West
Temperatur 9°C
Luftfeuchtigkeit 93%
Luftdruck 1027 hPa
Sichtweite: 5000 m
Geschlossene Wolkendecke in der Höhe von 500 ft
feuchter Dunst

METAR: EDHK 141450Z 21006KT 180V260 5000 BR OVC005 09/08 Q1027

Zeit: 05:50 (04:50 UTC)

Prognose

Neuester Wetterbericht von vor 14 Stunden und 50 Minuten, um 14:00 UTC
Gültige Prognose vom 14 um 15 UTC bis 14 um 18 UTC
Wind 6 kt aus Südwest
Sichtweite: 6000 m
Geschlossene Wolkendecke in der Höhe von 400 ft
Zeitweise
vom 14 um 15 UTC bis 14 um 18 UTC
Sichtweite: 2500 m
Durchbrochene Bewölkung in der Höhe von 700 ft
feuchter Dunst

TAF: EDHK 141400Z 1415/1418 22006KT 6000 OVC004 TEMPO 1415/1418 2500 BR BKN007

Wetterbeobachtungen und Prognosen von mehr als 4000 Flughäfen (METAR und TAF Bericht).

Die verfügbaren Stationen werden durch gelbe und rote Markierungen auf der Karte dargestellt.

Führen Sie die Maus auf sie, um den Namen der Station zu sehen.

Darauf klicken, um die Beobachtung von Wetterbeobachtungen und Prognosen zu sehen.

Um die Karte zu ändern : klicken Sie auf den grünen Tasten mit einem schwarzen Kreuz Zum Vergrößern, auf den grünen Button mit einem Gedankenstrich zu verkleinern, oder auf die grünen Pfeile für benachbarte Karten.


METAR-TAF: